Orlando, Florida
Traffic Map
Current Weather Conditions
Orlando, Florida
Few Clouds
Few Clouds
85°
Feels Like: 94°
Wind Chill: 85° Ceiling: Unl
Heat Index: 94° Visibility: 10mi
Dew Point: 76° Wind: 8mph
Humidity: 74% Direction: 80° (E)
Pressure: 29.96in Gusts: 0mph
Raw Report DataKORL 312353Z 08007KT 10SM FEW060 29/24 A2996 RMK AO2 SLP146 T02940244 10339 20294 53010
Traffic Incident Summary
Active as of:
Severity:
Category:
InformationThere was an issue retrieving the traffic information for this location. Please try a different location or try again shortly.
Advertisements
Track Severe Weather on mobile